Terminal Aerodrome Forecast
Issued by NWS

Current Version | Previous Version | Graphics & Text | Print | Product List | Glossary On
Versions: 1 2 3 4 5 6 7 8 9 10 11 12 13 14 15 16
000
FTUS41 KILN 191700
TAFLUK
TAF
KLUK 191726Z 1918/2018 24005KT P6SM FEW030 BKN250
     FM200000 20003KT P6SM SCT250
     FM201000 20006KT P6SM BKN100
     FM201500 22012G18KT P6SM BKN080=

USA.gov is the U.S. government's official web portal to all federal, state and local government web resources and services.